createdAt,value
2023-01-29T00:02:01.455Z,102031.16
2023-01-29T00:04:29.009Z,102027.44
2023-01-29T00:06:57.938Z,102029.00
2023-01-29T00:09:25.749Z,102027.53
2023-01-29T00:11:53.237Z,102028.50
2023-01-29T00:14:21.052Z,102025.66
2023-01-29T00:16:48.885Z,102019.53
2023-01-29T00:19:17.428Z,102017.25
2023-01-29T00:21:44.959Z,102018.69
2023-01-29T00:24:14.145Z,102006.44
2023-01-29T00:26:42.384Z,102011.69
2023-01-29T00:29:10.075Z,102011.69
2023-01-29T00:31:37.629Z,102024.81
2023-01-29T00:34:05.219Z,102005.97
2023-01-29T00:36:32.704Z,102003.47
2023-01-29T00:39:03.462Z,102012.44
2023-01-29T00:41:51.539Z,102019.16
2023-01-29T00:44:37.202Z,102006.19
2023-01-29T00:47:25.519Z,102004.03
2023-01-29T00:49:53.095Z,102004.75
2023-01-29T00:52:26.936Z,102008.16
2023-01-29T00:54:55.500Z,102001.19
2023-01-29T00:57:24.729Z,102003.34
2023-01-29T00:59:52.318Z,101998.03
2023-01-29T01:02:38.252Z,101998.06
2023-01-29T01:05:07.661Z,101994.97
2023-01-29T01:07:35.535Z,101982.09
2023-01-29T01:10:20.916Z,101976.47
2023-01-29T01:12:52.231Z,101958.25
2023-01-29T01:15:20.851Z,101966.38
2023-01-29T01:17:53.878Z,101962.53
2023-01-29T01:20:21.484Z,101960.41
2023-01-29T01:22:49.358Z,101966.38
2023-01-29T01:25:17.514Z,101957.97
2023-01-29T01:27:45.029Z,101957.72
2023-01-29T01:30:16.113Z,101953.44
2023-01-29T01:32:44.351Z,101963.50
2023-01-29T01:35:13.714Z,101967.34
2023-01-29T01:37:42.034Z,101972.84
2023-01-29T01:40:18.767Z,101969.59
2023-01-29T01:42:49.274Z,101957.25
2023-01-29T01:45:23.111Z,101955.69
2023-01-29T01:47:52.831Z,101960.38
2023-01-29T01:50:26.748Z,101962.53
2023-01-29T01:52:56.722Z,101961.44
2023-01-29T01:55:27.800Z,101963.81
2023-01-29T01:57:59.475Z,101973.75
2023-01-29T02:00:28.423Z,101967.94
2023-01-29T02:03:13.935Z,101964.66
2023-01-29T02:05:59.806Z,101958.19
2023-01-29T02:08:49.154Z,101964.41
2023-01-29T02:11:17.163Z,101973.44
2023-01-29T02:13:45.673Z,101979.56
2023-01-29T02:16:14.512Z,101984.94
2023-01-29T02:18:42.017Z,101986.75
2023-01-29T02:21:25.151Z,101988.63
2023-01-29T02:24:23.734Z,101981.47
2023-01-29T02:26:56.959Z,101997.69
2023-01-29T02:29:33.201Z,101996.94
2023-01-29T02:32:10.890Z,102006.78
2023-01-29T02:35:00.564Z,101996.59
2023-01-29T02:37:36.155Z,101987.72
2023-01-29T02:40:10.856Z,101985.59
2023-01-29T02:42:43.549Z,101986.78
2023-01-29T02:45:15.407Z,101998.06
2023-01-29T02:47:48.525Z,102004.03
2023-01-29T02:50:20.504Z,102002.13
2023-01-29T02:52:56.762Z,102006.91
2023-01-29T02:55:28.563Z,101995.38
2023-01-29T02:58:00.597Z,102001.88
2023-01-29T03:00:31.819Z,101997.22
2023-01-29T03:03:03.395Z,101998.03
2023-01-29T03:05:33.859Z,101995.16
2023-01-29T03:08:05.277Z,101993.50
2023-01-29T03:10:36.691Z,101999.72
2023-01-29T03:13:07.556Z,102004.03
2023-01-29T03:15:42.410Z,101998.78
2023-01-29T03:18:12.995Z,102005.00
2023-01-29T03:20:48.714Z,101997.44
2023-01-29T03:23:23.889Z,101995.88
2023-01-29T03:26:10.372Z,101977.06
2023-01-29T03:28:56.522Z,101973.09
2023-01-29T03:31:45.181Z,101975.50
2023-01-29T03:34:18.114Z,101974.53
2023-01-29T03:36:50.160Z,101973.09
2023-01-29T03:39:18.384Z,101963.97
2023-01-29T03:41:50.143Z,101953.69
2023-01-29T03:44:20.580Z,101950.19
2023-01-29T03:46:53.801Z,101951.03
2023-01-29T03:49:26.785Z,101941.56
2023-01-29T03:51:57.879Z,101940.13
2023-01-29T03:54:29.858Z,101930.28
2023-01-29T03:57:00.664Z,101926.56
2023-01-29T03:59:36.819Z,101915.78
2023-01-29T04:02:07.631Z,101906.66
2023-01-29T04:04:36.971Z,101908.91
2023-01-29T04:07:08.260Z,101909.28
2023-01-29T04:09:39.769Z,101900.75
2023-01-29T04:12:10.229Z,101912.88
2023-01-29T04:14:39.215Z,101923.91
2023-01-29T04:17:12.682Z,101922.97
2023-01-29T04:19:40.577Z,101930.41
2023-01-29T04:22:11.474Z,101916.75
2023-01-29T04:24:39.107Z,101910.22
2023-01-29T04:27:20.775Z,101906.16
2023-01-29T04:30:18.188Z,101906.41
2023-01-29T04:32:59.049Z,101895.13
2023-01-29T04:35:32.249Z,101895.47
2023-01-29T04:38:09.153Z,101900.75
2023-01-29T04:40:44.162Z,101891.66
2023-01-29T04:43:17.511Z,101890.56
2023-01-29T04:45:50.630Z,101883.75
2023-01-29T04:48:23.230Z,101884.81
2023-01-29T04:50:56.176Z,101874.25
2023-01-29T04:53:27.692Z,101867.78
2023-01-29T04:55:59.492Z,101878.09
2023-01-29T04:58:31.416Z,101876.06
2023-01-29T05:00:59.905Z,101869.72
2023-01-29T05:03:30.446Z,101873.06
2023-01-29T05:05:59.211Z,101872.94
2023-01-29T05:08:27.464Z,101869.25
2023-01-29T05:10:55.902Z,101874.03
2023-01-29T05:13:24.547Z,101868.75
2023-01-29T05:15:57.825Z,101863.47
2023-01-29T05:18:25.621Z,101873.31
2023-01-29T05:20:56.621Z,101874.50
2023-01-29T05:23:24.489Z,101876.66
2023-01-29T05:25:52.622Z,101869.72
2023-01-29T05:28:19.471Z,101876.78
2023-01-29T05:30:48.276Z,101874.41
2023-01-29T05:33:18.834Z,101882.16
2023-01-29T05:35:47.092Z,101877.50
2023-01-29T05:38:16.690Z,101878.59
2023-01-29T05:40:44.919Z,101885.31
2023-01-29T05:43:17.406Z,101879.19
2023-01-29T05:45:45.191Z,101879.78
2023-01-29T05:48:12.845Z,101875.47
2023-01-29T05:50:40.333Z,101874.97
2023-01-29T05:53:07.825Z,101874.50
2023-01-29T05:55:37.068Z,101879.53
2023-01-29T05:58:05.968Z,101891.06
2023-01-29T06:00:33.754Z,101887.09
2023-01-29T06:03:01.717Z,101883.97
2023-01-29T06:05:29.534Z,101881.94
2023-01-29T06:07:57.239Z,101867.06
2023-01-29T06:10:24.768Z,101869.69
2023-01-29T06:12:53.890Z,101879.06
2023-01-29T06:15:21.610Z,101883.25
2023-01-29T06:17:49.369Z,101870.66
2023-01-29T06:20:17.325Z,101862.13
2023-01-29T06:22:45.123Z,101861.16
2023-01-29T06:25:12.939Z,101878.56
2023-01-29T06:27:40.445Z,101884.78
2023-01-29T06:30:10.700Z,101877.63
2023-01-29T06:32:38.268Z,101875.44
2023-01-29T06:35:06.733Z,101880.22
2023-01-29T06:37:34.515Z,101876.16
2023-01-29T06:40:02.194Z,101893.69
2023-01-29T06:42:29.690Z,101885.72
2023-01-29T06:44:57.718Z,101888.66
2023-01-29T06:47:28.319Z,101874.94
2023-01-29T06:49:56.124Z,101896.81
2023-01-29T06:52:25.519Z,101900.41
2023-01-29T06:54:53.209Z,101900.28
2023-01-29T06:57:20.735Z,101884.31
2023-01-29T06:59:48.447Z,101881.69
2023-01-29T07:02:16.098Z,101870.31
2023-01-29T07:04:45.127Z,101877.47
2023-01-29T07:07:13.681Z,101891.28
2023-01-29T07:09:41.866Z,101884.56
2023-01-29T07:12:09.491Z,101881.69
2023-01-29T07:14:37.032Z,101881.44
2023-01-29T07:17:04.745Z,101881.44
2023-01-29T07:19:32.303Z,101883.59
2023-01-29T07:22:02.271Z,101885.78
2023-01-29T07:24:29.937Z,101879.53
2023-01-29T07:26:57.519Z,101882.28
2023-01-29T07:29:25.032Z,101865.84
2023-01-29T07:31:52.644Z,101884.22
2023-01-29T07:34:20.583Z,101887.22
2023-01-29T07:36:48.283Z,101876.78
2023-01-29T07:39:17.223Z,101886.72
2023-01-29T07:41:44.668Z,101876.88
2023-01-29T07:44:12.320Z,101868.72
2023-01-29T07:46:39.997Z,101866.22
2023-01-29T07:49:07.705Z,101860.09
2023-01-29T07:51:35.429Z,101857.59
2023-01-29T07:54:02.887Z,101859.59
2023-01-29T07:56:31.895Z,101862.72
2023-01-29T07:58:59.644Z,101859.84
2023-01-29T08:01:27.294Z,101861.63
2023-01-29T08:03:54.984Z,101869.66
2023-01-29T08:06:22.653Z,101858.66
2023-01-29T08:08:50.530Z,101860.56
2023-01-29T08:11:18.198Z,101858.00
2023-01-29T08:13:47.106Z,101853.94
2023-01-29T08:16:14.770Z,101854.28
2023-01-29T08:18:46.409Z,101840.06
2023-01-29T08:21:14.129Z,101845.44
2023-01-29T08:23:41.975Z,101839.91
2023-01-29T08:26:09.639Z,101841.84
2023-01-29T08:28:38.568Z,101834.63
2023-01-29T08:31:14.314Z,101823.13
2023-01-29T08:33:41.865Z,101819.72
2023-01-29T08:36:10.875Z,101810.13
2023-01-29T08:38:38.453Z,101803.03
2023-01-29T08:41:06.691Z,101801.69
2023-01-29T08:43:35.393Z,101808.19
2023-01-29T08:46:04.315Z,101808.06
2023-01-29T08:48:33.681Z,101805.56
2023-01-29T08:51:02.194Z,101811.53
2023-01-29T08:53:29.721Z,101794.41
2023-01-29T08:55:57.266Z,101795.84
2023-01-29T08:58:24.780Z,101810.50
2023-01-29T09:00:52.457Z,101802.13
2023-01-29T09:03:20.064Z,101799.16
2023-01-29T09:05:48.949Z,101780.09
2023-01-29T09:08:16.656Z,101776.88
2023-01-29T09:10:44.333Z,101784.75
2023-01-29T09:13:12.126Z,101791.59
2023-01-29T09:15:39.824Z,101794.72
2023-01-29T09:18:07.604Z,101797.50
2023-01-29T09:20:37.748Z,101808.09
2023-01-29T09:23:07.583Z,101809.22
2023-01-29T09:25:35.122Z,101806.31
2023-01-29T09:28:02.824Z,101806.63
2023-01-29T09:30:30.494Z,101800.78
2023-01-29T09:32:58.115Z,101798.88
2023-01-29T09:35:25.808Z,101805.59
2023-01-29T09:37:54.026Z,101802.78
2023-01-29T09:40:26.814Z,101804.16
2023-01-29T09:42:57.788Z,101813.25
2023-01-29T09:45:26.332Z,101816.63
2023-01-29T09:47:54.831Z,101814.41
2023-01-29T09:50:25.061Z,101811.53
2023-01-29T09:52:55.427Z,101815.75
2023-01-29T09:55:27.594Z,101813.94
2023-01-29T09:57:57.710Z,101811.09
2023-01-29T10:00:26.673Z,101808.16
2023-01-29T10:03:12.033Z,101802.41
2023-01-29T10:05:54.621Z,101804.13
2023-01-29T10:08:48.726Z,101803.63
2023-01-29T10:11:27.609Z,101796.47
2023-01-29T10:14:05.736Z,101792.59
2023-01-29T10:16:44.033Z,101774.75
2023-01-29T10:19:50.224Z,101771.72
2023-01-29T10:22:32.882Z,101745.94
2023-01-29T10:25:02.951Z,101745.50
2023-01-29T10:27:34.185Z,101742.34
2023-01-29T10:30:04.438Z,101753.09
2023-01-29T10:32:32.094Z,101749.47
2023-01-29T10:35:03.027Z,101753.44
2023-01-29T10:37:37.401Z,101750.28
2023-01-29T10:40:23.761Z,101750.00
2023-01-29T10:42:57.894Z,101754.94
2023-01-29T10:45:31.445Z,101747.50
2023-01-29T10:48:33.827Z,101748.16
2023-01-29T10:51:07.174Z,101743.22
2023-01-29T10:53:42.643Z,101749.66
2023-01-29T10:56:23.402Z,101727.53
2023-01-29T10:58:54.091Z,101714.56
2023-01-29T11:01:21.791Z,101710.44
2023-01-29T11:03:58.389Z,101708.75
2023-01-29T11:06:30.143Z,101698.25
2023-01-29T11:09:03.595Z,101696.31
2023-01-29T11:11:34.736Z,101686.25
2023-01-29T11:14:09.034Z,101690.28
2023-01-29T11:16:42.355Z,101689.75
2023-01-29T11:19:10.139Z,101693.81
2023-01-29T11:21:52.976Z,101686.59
2023-01-29T11:24:20.840Z,101682.91
2023-01-29T11:26:50.045Z,101690.78
2023-01-29T11:29:38.389Z,101679.06
2023-01-29T11:32:07.106Z,101673.25
2023-01-29T11:34:35.248Z,101677.25
2023-01-29T11:37:04.804Z,101671.66
2023-01-29T11:39:33.541Z,101672.25
2023-01-29T11:42:03.798Z,101662.84
2023-01-29T11:44:36.632Z,101660.91
2023-01-29T11:47:13.765Z,101649.81
2023-01-29T11:49:45.783Z,101641.19
2023-01-29T11:52:14.599Z,101638.13
2023-01-29T11:54:46.567Z,101623.66
2023-01-29T11:57:27.908Z,101624.19
2023-01-29T11:59:58.188Z,101614.09
2023-01-29T12:02:31.395Z,101607.94
2023-01-29T12:05:02.394Z,101595.69
2023-01-29T12:07:30.990Z,101601.41
2023-01-29T12:09:59.983Z,101591.94
2023-01-29T12:12:33.691Z,101590.13
2023-01-29T12:15:19.627Z,101597.22
2023-01-29T12:18:06.556Z,101573.25
2023-01-29T12:20:38.109Z,101578.00
2023-01-29T12:23:13.146Z,101586.78
2023-01-29T12:25:46.241Z,101576.19
2023-01-29T12:28:24.923Z,101570.22
2023-01-29T12:31:07.745Z,101565.19
2023-01-29T12:33:42.438Z,101560.81
2023-01-29T12:36:15.062Z,101561.81
2023-01-29T12:38:45.207Z,101550.69
2023-01-29T12:41:25.693Z,101549.16
2023-01-29T12:43:55.401Z,101530.31
2023-01-29T12:46:27.820Z,101534.22
2023-01-29T12:48:56.538Z,101522.16
2023-01-29T12:51:26.946Z,101534.38
2023-01-29T12:53:57.614Z,101524.09
2023-01-29T12:56:30.323Z,101524.63
2023-01-29T12:58:59.256Z,101520.06
2023-01-29T13:01:32.158Z,101512.34
2023-01-29T13:04:04.029Z,101521.41
2023-01-29T13:06:33.348Z,101521.97
2023-01-29T13:09:03.633Z,101506.06
2023-01-29T13:11:35.493Z,101507.78
2023-01-29T13:14:05.612Z,101501.78
2023-01-29T13:16:39.671Z,101500.41
2023-01-29T13:19:10.924Z,101500.50
2023-01-29T13:21:41.888Z,101496.34
2023-01-29T13:24:13.467Z,101494.50
2023-01-29T13:26:42.014Z,101493.56
2023-01-29T13:29:22.143Z,101489.03
2023-01-29T13:31:51.526Z,101489.75
2023-01-29T13:34:23.387Z,101490.88
2023-01-29T13:36:53.224Z,101490.06
2023-01-29T13:39:26.353Z,101495.53
2023-01-29T13:41:56.112Z,101488.53
2023-01-29T13:44:26.383Z,101481.56
2023-01-29T13:47:00.167Z,101484.13
2023-01-29T13:49:34.822Z,101478.00
2023-01-29T13:52:17.411Z,101477.28
2023-01-29T13:54:52.257Z,101481.06
2023-01-29T13:57:36.599Z,101478.78
2023-01-29T14:00:04.936Z,101475.19
2023-01-29T14:02:33.965Z,101463.22
2023-01-29T14:05:39.093Z,101471.84
2023-01-29T14:08:07.979Z,101466.84
2023-01-29T14:10:37.010Z,101469.38
2023-01-29T14:13:29.663Z,101450.72
2023-01-29T14:16:29.317Z,101448.31
2023-01-29T14:19:01.106Z,101446.66
2023-01-29T14:21:31.813Z,101459.22
2023-01-29T14:24:01.267Z,101456.53
2023-01-29T14:26:31.777Z,101447.75
2023-01-29T14:29:03.239Z,101444.16
2023-01-29T14:31:40.911Z,101451.94
2023-01-29T14:34:17.878Z,101444.56
2023-01-29T14:36:46.577Z,101453.63
2023-01-29T14:39:23.688Z,101452.34
2023-01-29T14:41:51.802Z,101447.91
2023-01-29T14:44:57.903Z,101448.16
2023-01-29T14:47:59.494Z,101441.78
2023-01-29T14:50:47.897Z,101446.53
2023-01-29T14:53:19.779Z,101435.03
2023-01-29T14:55:53.333Z,101444.03
2023-01-29T14:58:24.643Z,101434.25
2023-01-29T15:00:55.686Z,101443.75
2023-01-29T15:03:30.984Z,101439.13
2023-01-29T15:06:01.057Z,101444.00
2023-01-29T15:08:34.322Z,101446.81
2023-01-29T15:11:22.099Z,101443.44
2023-01-29T15:13:54.502Z,101431.22
2023-01-29T15:16:25.320Z,101443.06
2023-01-29T15:18:57.633Z,101439.03
2023-01-29T15:21:26.482Z,101431.25
2023-01-29T15:24:05.211Z,101444.19
2023-01-29T15:26:33.314Z,101436.38
2023-01-29T15:29:04.636Z,101442.66
2023-01-29T15:31:32.898Z,101440.41
2023-01-29T15:34:05.404Z,101430.53
2023-01-29T15:36:34.967Z,101422.06
2023-01-29T15:39:15.879Z,101416.47
2023-01-29T15:41:43.614Z,101413.41
2023-01-29T15:44:16.406Z,101410.19
2023-01-29T15:46:46.090Z,101397.97
2023-01-29T15:49:19.569Z,101394.75
2023-01-29T15:51:49.486Z,101393.78
2023-01-29T15:54:18.385Z,101382.13
2023-01-29T15:56:48.517Z,101383.34
2023-01-29T15:59:19.139Z,101379.72
2023-01-29T16:01:46.728Z,101370.00
2023-01-29T16:04:16.578Z,101372.75
2023-01-29T16:06:44.780Z,101379.56
2023-01-29T16:09:18.681Z,101371.91
2023-01-29T16:11:46.972Z,101371.06
2023-01-29T16:14:16.247Z,101369.53
2023-01-29T16:16:45.048Z,101372.03
2023-01-29T16:19:22.522Z,101360.34
2023-01-29T16:21:55.488Z,101360.22
2023-01-29T16:24:25.170Z,101369.53
2023-01-29T16:26:54.259Z,101359.38
2023-01-29T16:29:24.064Z,101351.59
2023-01-29T16:31:53.175Z,101340.41
2023-01-29T16:34:25.508Z,101355.47
2023-01-29T16:36:54.702Z,101346.25
2023-01-29T16:39:26.105Z,101345.47
2023-01-29T16:42:21.069Z,101338.78
2023-01-29T16:44:51.631Z,101340.22
2023-01-29T16:47:25.097Z,101340.47
2023-01-29T16:49:54.509Z,101338.22
2023-01-29T16:52:26.036Z,101340.22
2023-01-29T16:55:00.139Z,101342.94
2023-01-29T16:57:31.320Z,101341.41
2023-01-29T17:00:02.268Z,101335.63
2023-01-29T17:02:33.138Z,101333.72
2023-01-29T17:05:03.427Z,101336.81
2023-01-29T17:07:31.601Z,101325.22
2023-01-29T17:10:02.522Z,101323.97
2023-01-29T17:12:31.631Z,101328.72
2023-01-29T17:15:00.395Z,101317.00
2023-01-29T17:17:32.861Z,101305.09
2023-01-29T17:20:14.678Z,101311.69
2023-01-29T17:22:42.258Z,101301.28
2023-01-29T17:25:14.462Z,101301.34
2023-01-29T17:27:42.601Z,101296.09
2023-01-29T17:30:15.301Z,101305.69
2023-01-29T17:32:45.220Z,101303.34
2023-01-29T17:35:16.017Z,101283.19
2023-01-29T17:37:44.251Z,101276.69
2023-01-29T17:40:22.763Z,101275.31
2023-01-29T17:42:50.444Z,101269.94
2023-01-29T17:45:18.310Z,101282.72
2023-01-29T17:47:46.208Z,101271.16
2023-01-29T17:50:20.485Z,101263.72
2023-01-29T17:52:48.239Z,101251.25
2023-01-29T17:55:16.493Z,101240.91
2023-01-29T17:57:45.858Z,101228.38
2023-01-29T18:00:18.983Z,101231.69
2023-01-29T18:02:46.695Z,101223.00
2023-01-29T18:05:15.789Z,101226.38
2023-01-29T18:07:45.219Z,101216.75
2023-01-29T18:10:14.358Z,101223.06
2023-01-29T18:12:42.057Z,101213.25
2023-01-29T18:15:11.880Z,101210.59
2023-01-29T18:17:40.068Z,101211.56
2023-01-29T18:20:18.580Z,101219.97
2023-01-29T18:22:46.555Z,101212.78
2023-01-29T18:25:14.444Z,101223.97
2023-01-29T18:27:42.463Z,101218.34
2023-01-29T18:30:13.339Z,101227.41
2023-01-29T18:32:40.963Z,101222.59
2023-01-29T18:35:09.745Z,101219.84
2023-01-29T18:37:37.512Z,101204.22
2023-01-29T18:40:06.145Z,101198.69
2023-01-29T18:42:35.823Z,101208.19
2023-01-29T18:45:03.863Z,101194.00
2023-01-29T18:47:32.893Z,101190.91
2023-01-29T18:50:00.403Z,101191.78
2023-01-29T18:52:28.178Z,101194.72
2023-01-29T18:54:55.691Z,101188.50
2023-01-29T18:58:28.456Z,101173.81
2023-01-29T19:00:12.085Z,101165.59
2023-01-29T19:02:42.987Z,101159.38
2023-01-29T19:05:10.813Z,101153.41
2023-01-29T19:07:38.342Z,101149.19
2023-01-29T19:10:09.237Z,101150.16
2023-01-29T19:12:38.036Z,101142.19
2023-01-29T19:15:06.557Z,101130.22
2023-01-29T19:17:34.722Z,101123.69
2023-01-29T19:20:04.737Z,101131.06
2023-01-29T19:22:42.564Z,101117.78
2023-01-29T19:25:12.815Z,101117.28
2023-01-29T19:27:40.552Z,101112.56
2023-01-29T19:30:10.804Z,101113.63
2023-01-29T19:32:38.497Z,101109.16
2023-01-29T19:35:07.943Z,101101.13
2023-01-29T19:37:35.881Z,101099.56
2023-01-29T19:40:03.623Z,101095.25
2023-01-29T19:42:31.471Z,101102.97
2023-01-29T19:44:59.209Z,101090.88
2023-01-29T19:47:27.102Z,101078.19
2023-01-29T19:49:54.793Z,101072.06
2023-01-29T19:52:50.337Z,101063.91
2023-01-29T19:55:20.296Z,101051.53
2023-01-29T19:57:48.324Z,101049.47
2023-01-29T20:00:17.421Z,101035.41
2023-01-29T20:02:45.239Z,101027.63
2023-01-29T20:05:13.441Z,101013.13
2023-01-29T20:07:42.424Z,101020.69
2023-01-29T20:10:17.128Z,101015.47
2023-01-29T20:12:45.449Z,101003.84
2023-01-29T20:15:13.380Z,101001.63
2023-01-29T20:17:41.370Z,101003.53
2023-01-29T20:20:10.397Z,101000.34
2023-01-29T20:22:38.103Z,100998.06
2023-01-29T20:25:07.979Z,101005.53
2023-01-29T20:27:35.509Z,101010.97
2023-01-29T20:30:03.263Z,101003.59
2023-01-29T20:32:31.756Z,100995.47
2023-01-29T20:34:59.272Z,100988.50
2023-01-29T20:37:27.119Z,100997.16
2023-01-29T20:39:54.659Z,100992.00
2023-01-29T20:42:23.570Z,100983.94
2023-01-29T20:44:51.132Z,100998.47
2023-01-29T20:47:18.845Z,101008.47
2023-01-29T20:49:46.622Z,101000.56
2023-01-29T20:52:14.214Z,100996.41
2023-01-29T20:54:41.861Z,101001.13
2023-01-29T20:57:09.456Z,100991.94
2023-01-29T20:59:38.491Z,100977.78
2023-01-29T21:02:06.011Z,100977.09
2023-01-29T21:04:33.536Z,100957.78
2023-01-29T21:07:01.083Z,100955.53
2023-01-29T21:09:28.655Z,100956.97
2023-01-29T21:11:56.205Z,100973.53
2023-01-29T21:14:23.919Z,100970.22
2023-01-29T21:16:53.066Z,100986.81
2023-01-29T21:19:20.926Z,100983.50
2023-01-29T21:21:48.484Z,100986.16
2023-01-29T21:24:18.641Z,100983.88
2023-01-29T21:26:46.434Z,100992.13
2023-01-29T21:29:14.347Z,101001.16
2023-01-29T21:31:42.711Z,101003.97
2023-01-29T21:34:11.610Z,100993.41
2023-01-29T21:36:39.267Z,100988.91
2023-01-29T21:39:16.438Z,100992.22
2023-01-29T21:42:01.795Z,100981.31
2023-01-29T21:44:29.515Z,100949.00
2023-01-29T21:46:57.028Z,100947.84
2023-01-29T21:49:25.967Z,100965.41
2023-01-29T21:51:54.542Z,100968.41
2023-01-29T21:54:22.021Z,100981.69
2023-01-29T21:56:49.582Z,100986.66
2023-01-29T21:59:17.062Z,100985.31
2023-01-29T22:01:44.680Z,100963.81
2023-01-29T22:04:12.445Z,100960.03
2023-01-29T22:06:41.357Z,100963.63
2023-01-29T22:09:09.032Z,100948.56
2023-01-29T22:11:36.781Z,100947.09
2023-01-29T22:14:04.281Z,100958.03
2023-01-29T22:16:31.973Z,100958.81
2023-01-29T22:18:59.675Z,100961.00
2023-01-29T22:21:27.178Z,100966.50
2023-01-29T22:23:56.211Z,100980.72
2023-01-29T22:26:23.970Z,100965.97
2023-01-29T22:28:51.531Z,100940.78
2023-01-29T22:31:19.230Z,100935.19
2023-01-29T22:33:46.737Z,100925.72
2023-01-29T22:36:14.316Z,100918.28
2023-01-29T22:38:43.224Z,100906.53
2023-01-29T22:41:12.233Z,100899.25
2023-01-29T22:43:40.916Z,100892.78
2023-01-29T22:46:09.060Z,100892.28
2023-01-29T22:48:36.605Z,100849.88
2023-01-29T22:51:13.764Z,100828.69
2023-01-29T22:53:43.023Z,100804.66
2023-01-29T22:56:12.436Z,100773.00
2023-01-29T22:58:41.038Z,100768.53
2023-01-29T23:01:08.824Z,100767.03
2023-01-29T23:03:36.926Z,100756.44
2023-01-29T23:06:05.111Z,100763.56
2023-01-29T23:08:33.664Z,100771.69
2023-01-29T23:11:13.764Z,100787.41
2023-01-29T23:13:43.631Z,100836.63
2023-01-29T23:16:11.533Z,100834.47
2023-01-29T23:18:39.815Z,100793.56
2023-01-29T23:21:07.489Z,100782.94
2023-01-29T23:23:35.840Z,100790.41
2023-01-29T23:26:22.701Z,100787.59
2023-01-29T23:28:51.581Z,100744.47
2023-01-29T23:31:19.489Z,100740.69
2023-01-29T23:33:47.119Z,100753.44
2023-01-29T23:36:14.765Z,100751.97
2023-01-29T23:38:42.359Z,100743.81
2023-01-29T23:41:09.825Z,100720.78
2023-01-29T23:43:37.337Z,100710.69
2023-01-29T23:46:06.543Z,100728.91
2023-01-29T23:48:34.175Z,100712.66
2023-01-29T23:51:01.862Z,100717.63
2023-01-29T23:53:29.347Z,100729.72
2023-01-29T23:55:58.053Z,100742.47
2023-01-29T23:58:26.088Z,100743.16
